OHEEK EDDF-EDDL
Flight info
| Callsign | OHEEK |
|---|---|
| Flight time | 0h 46m |
| Altitude | 3000 |
| Route | MARUN DOMUX |
| Aircraft | P28B/L-V/N |
Departure
| Time | 2026-05-05 11:37 |
|---|---|
| Airport | Frankfurt Main Airport (EDDF) |
Arrival
| Time | 2026-05-05 12:23 |
|---|---|
| Airport | Düsseldorf Airport (EDDL) |
| Time | Latitude | Longitude | Altitude | Speed | Heading |
|---|---|---|---|---|---|
| 2026-05-05 11:02 | 50.03232 | 8.58093 | 355 ft | 0 kts | 250° |
| 2026-05-05 11:24 | 50.03231 | 8.58091 | 355 ft | 2 kts | 251° |
| 2026-05-05 11:24 | 50.03256 | 8.58132 | 357 ft | 7 kts | 60° |
| 2026-05-05 11:24 | 50.03322 | 8.58136 | 356 ft | 13 kts | 345° |
| 2026-05-05 11:24 | 50.03354 | 8.58122 | 359 ft | 5 kts | 343° |
| 2026-05-05 11:25 | 50.03397 | 8.58100 | 359 ft | 8 kts | 340° |
| 2026-05-05 11:25 | 50.03458 | 8.58068 | 363 ft | 9 kts | 345° |
| 2026-05-05 11:25 | 50.03521 | 8.58062 | 364 ft | 10 kts | 9° |
| 2026-05-05 11:25 | 50.03591 | 8.58113 | 365 ft | 9 kts | 51° |
| 2026-05-05 11:26 | 50.03612 | 8.58123 | 365 ft | 4 kts | 295° |
| 2026-05-05 11:26 | 50.03649 | 8.58086 | 366 ft | 11 kts | 1° |
| 2026-05-05 11:26 | 50.03703 | 8.58186 | 366 ft | 15 kts | 70° |
| 2026-05-05 11:26 | 50.03744 | 8.58360 | 366 ft | 19 kts | 70° |
| 2026-05-05 11:27 | 50.03776 | 8.58495 | 366 ft | 12 kts | 68° |
| 2026-05-05 11:27 | 50.03791 | 8.58550 | 367 ft | 0 kts | 68° |
| 2026-05-05 11:27 | 50.03802 | 8.58597 | 368 ft | 15 kts | 69° |
| 2026-05-05 11:28 | 50.03854 | 8.58695 | 370 ft | 11 kts | 5° |
| 2026-05-05 11:28 | 50.03901 | 8.58676 | 371 ft | 6 kts | 339° |
| 2026-05-05 11:28 | 50.03909 | 8.58671 | 371 ft | 0 kts | 338° |
| 2026-05-05 11:30 | 50.03934 | 8.58655 | 371 ft | 13 kts | 336° |
| 2026-05-05 11:30 | 50.03981 | 8.58552 | 371 ft | 11 kts | 259° |
| 2026-05-05 11:30 | 50.03972 | 8.58507 | 371 ft | 0 kts | 249° |
| 2026-05-05 11:36 | 50.03960 | 8.58458 | 371 ft | 18 kts | 249° |
| 2026-05-05 11:36 | 50.03858 | 8.58031 | 366 ft | 67 kts | 250° |
| 2026-05-05 11:37 | 50.03661 | 8.57185 | 487 ft | 92 kts | 252° |
| 2026-05-05 11:37 | 50.03438 | 8.56201 | 713 ft | 101 kts | 251° |
| 2026-05-05 11:37 | 50.03220 | 8.55144 | 948 ft | 104 kts | 254° |
| 2026-05-05 11:37 | 50.03032 | 8.54042 | 1183 ft | 107 kts | 255° |
| 2026-05-05 11:38 | 50.02829 | 8.52934 | 1453 ft | 107 kts | 253° |
| 2026-05-05 11:38 | 50.02783 | 8.51732 | 1578 ft | 126 kts | 286° |
| 2026-05-05 11:38 | 50.03359 | 8.50646 | 1653 ft | 138 kts | 323° |
| 2026-05-05 11:38 | 50.04232 | 8.49976 | 1771 ft | 141 kts | 342° |
| 2026-05-05 11:39 | 50.05213 | 8.49716 | 1838 ft | 147 kts | 359° |
| 2026-05-05 11:39 | 50.06227 | 8.49939 | 1982 ft | 145 kts | 14° |
| 2026-05-05 11:39 | 50.07188 | 8.50426 | 2162 ft | 147 kts | 23° |
| 2026-05-05 11:39 | 50.08094 | 8.51190 | 2330 ft | 147 kts | 32° |
| 2026-05-05 11:40 | 50.08990 | 8.51949 | 2512 ft | 147 kts | 27° |
| 2026-05-05 11:40 | 50.09904 | 8.52690 | 2669 ft | 149 kts | 28° |
| 2026-05-05 11:40 | 50.10829 | 8.53420 | 2812 ft | 149 kts | 24° |
| 2026-05-05 11:40 | 50.11783 | 8.54032 | 3011 ft | 146 kts | 22° |
| 2026-05-05 11:41 | 50.12720 | 8.54588 | 3273 ft | 144 kts | 22° |
| 2026-05-05 11:41 | 50.13682 | 8.55111 | 3450 ft | 149 kts | 18° |
| 2026-05-05 11:41 | 50.14695 | 8.55556 | 3596 ft | 153 kts | 16° |
| 2026-05-05 11:41 | 50.15721 | 8.56001 | 3793 ft | 153 kts | 14° |
| 2026-05-05 11:42 | 50.16785 | 8.56381 | 3924 ft | 159 kts | 11° |
| 2026-05-05 11:42 | 50.17850 | 8.56685 | 4120 ft | 152 kts | 10° |
| 2026-05-05 11:42 | 50.18895 | 8.56948 | 4146 ft | 155 kts | 7° |
| 2026-05-05 11:42 | 50.19974 | 8.57083 | 4140 ft | 155 kts | 2° |
| 2026-05-05 11:43 | 50.21041 | 8.57144 | 4190 ft | 153 kts | 1° |
| 2026-05-05 11:43 | 50.22123 | 8.57194 | 4189 ft | 157 kts | 1° |
| 2026-05-05 11:43 | 50.23200 | 8.57310 | 4273 ft | 153 kts | 5° |
| 2026-05-05 11:43 | 50.24255 | 8.57551 | 4310 ft | 154 kts | 11° |
| 2026-05-05 11:44 | 50.25332 | 8.57627 | 4287 ft | 157 kts | 355° |
| 2026-05-05 11:44 | 50.26397 | 8.57350 | 4347 ft | 154 kts | 342° |
| 2026-05-05 11:44 | 50.27314 | 8.56507 | 4269 ft | 158 kts | 312° |
| 2026-05-05 11:44 | 50.27989 | 8.55166 | 4333 ft | 151 kts | 303° |
| 2026-05-05 11:45 | 50.28558 | 8.53823 | 4429 ft | 149 kts | 299° |
| 2026-05-05 11:45 | 50.29075 | 8.52380 | 4382 ft | 154 kts | 293° |
| 2026-05-05 11:45 | 50.29530 | 8.50887 | 4464 ft | 150 kts | 294° |
| 2026-05-05 11:45 | 50.29991 | 8.49416 | 4510 ft | 151 kts | 294° |
| 2026-05-05 11:46 | 50.30469 | 8.47954 | 4538 ft | 151 kts | 297° |
| 2026-05-05 11:46 | 50.31025 | 8.46588 | 4553 ft | 151 kts | 303° |
| 2026-05-05 11:46 | 50.31611 | 8.45208 | 4568 ft | 153 kts | 302° |
| 2026-05-05 11:46 | 50.32246 | 8.43882 | 4618 ft | 152 kts | 307° |
| 2026-05-05 11:47 | 50.32982 | 8.42685 | 4627 ft | 154 kts | 317° |
| 2026-05-05 11:47 | 50.33868 | 8.41730 | 4610 ft | 155 kts | 328° |
| 2026-05-05 11:47 | 50.34810 | 8.40832 | 4489 ft | 162 kts | 328° |
| 2026-05-05 11:47 | 50.35764 | 8.39958 | 4450 ft | 157 kts | 330° |
| 2026-05-05 11:48 | 50.37637 | 8.38310 | 4372 ft | 158 kts | 323° |
| 2026-05-05 11:48 | 50.38477 | 8.37211 | 4344 ft | 157 kts | 318° |
| 2026-05-05 11:48 | 50.39306 | 8.36145 | 4504 ft | 143 kts | 324° |
| 2026-05-05 11:49 | 50.40154 | 8.35431 | 4655 ft | 143 kts | 338° |
| 2026-05-05 11:49 | 50.41130 | 8.34854 | 4578 ft | 152 kts | 334° |
| 2026-05-05 11:49 | 50.42053 | 8.34038 | 4343 ft | 165 kts | 326° |
| 2026-05-05 11:49 | 50.42999 | 8.33109 | 4495 ft | 147 kts | 329° |
| 2026-05-05 11:50 | 50.43920 | 8.32252 | 4093 ft | 172 kts | 328° |
| 2026-05-05 11:50 | 50.44988 | 8.31206 | 3423 ft | 185 kts | 327° |
| 2026-05-05 11:50 | 50.46080 | 8.30124 | 2781 ft | 189 kts | 327° |
| 2026-05-05 11:50 | 50.47123 | 8.29017 | 2701 ft | 172 kts | 322° |
| 2026-05-05 11:51 | 50.48006 | 8.27845 | 2723 ft | 162 kts | 316° |
| 2026-05-05 11:51 | 50.48823 | 8.26715 | 2835 ft | 154 kts | 317° |
| 2026-05-05 11:51 | 50.49656 | 8.25667 | 2827 ft | 157 kts | 323° |
| 2026-05-05 11:51 | 50.50536 | 8.24618 | 2735 ft | 161 kts | 316° |
| 2026-05-05 11:52 | 50.51323 | 8.23401 | 2812 ft | 154 kts | 314° |
| 2026-05-05 11:52 | 50.52104 | 8.22266 | 2868 ft | 154 kts | 317° |
| 2026-05-05 11:52 | 50.52847 | 8.21013 | 2773 ft | 161 kts | 305° |
| 2026-05-05 11:52 | 50.53469 | 8.19580 | 2836 ft | 155 kts | 303° |
| 2026-05-05 11:53 | 50.53875 | 8.18672 | 2879 ft | 152 kts | 303° |
| 2026-05-05 11:53 | 50.54514 | 8.17300 | 2786 ft | 159 kts | 306° |
| 2026-05-05 11:53 | 50.55159 | 8.15901 | 2836 ft | 155 kts | 300° |
| 2026-05-05 11:53 | 50.55562 | 8.14351 | 2835 ft | 157 kts | 293° |
| 2026-05-05 11:54 | 50.56234 | 8.12922 | 2664 ft | 164 kts | 307° |
| 2026-05-05 11:54 | 50.56861 | 8.11505 | 2779 ft | 154 kts | 297° |
| 2026-05-05 11:54 | 50.57280 | 8.09960 | 2796 ft | 155 kts | 289° |
| 2026-05-05 11:54 | 50.57735 | 8.08399 | 2839 ft | 159 kts | 295° |
| 2026-05-05 11:55 | 50.58216 | 8.06850 | 2929 ft | 154 kts | 293° |
| 2026-05-05 11:55 | 50.58714 | 8.05378 | 3028 ft | 153 kts | 298° |
| 2026-05-05 11:55 | 50.59275 | 8.03937 | 3059 ft | 155 kts | 299° |
| 2026-05-05 11:55 | 50.59840 | 8.02483 | 3135 ft | 156 kts | 299° |
| 2026-05-05 11:56 | 50.60402 | 8.01024 | 3201 ft | 156 kts | 299° |
| 2026-05-05 11:56 | 50.60965 | 7.99557 | 3224 ft | 157 kts | 300° |
| 2026-05-05 11:56 | 50.61528 | 7.98085 | 3268 ft | 157 kts | 300° |
| 2026-05-05 11:56 | 50.62089 | 7.96610 | 3307 ft | 157 kts | 299° |
| 2026-05-05 11:57 | 50.62650 | 7.95130 | 3404 ft | 157 kts | 299° |
| 2026-05-05 11:57 | 50.63207 | 7.93650 | 3414 ft | 157 kts | 299° |
| 2026-05-05 11:57 | 50.63764 | 7.92167 | 3480 ft | 157 kts | 298° |
| 2026-05-05 11:57 | 50.64316 | 7.90688 | 3583 ft | 157 kts | 298° |
| 2026-05-05 11:58 | 50.64869 | 7.89207 | 3704 ft | 156 kts | 298° |
| 2026-05-05 11:58 | 50.65416 | 7.87729 | 3819 ft | 156 kts | 298° |
| 2026-05-05 11:58 | 50.65960 | 7.86250 | 3928 ft | 156 kts | 298° |
| 2026-05-05 11:58 | 50.66504 | 7.84769 | 4011 ft | 156 kts | 298° |
| 2026-05-05 11:59 | 50.67045 | 7.83287 | 3979 ft | 156 kts | 297° |
| 2026-05-05 11:59 | 50.67585 | 7.81804 | 3947 ft | 157 kts | 296° |
| 2026-05-05 11:59 | 50.68126 | 7.80309 | 3910 ft | 157 kts | 297° |
| 2026-05-05 11:59 | 50.68663 | 7.78815 | 3886 ft | 156 kts | 296° |
| 2026-05-05 12:00 | 50.69198 | 7.77320 | 3841 ft | 157 kts | 297° |
| 2026-05-05 12:00 | 50.69732 | 7.75827 | 3818 ft | 156 kts | 297° |
| 2026-05-05 12:00 | 50.70260 | 7.74338 | 3815 ft | 156 kts | 297° |
| 2026-05-05 12:00 | 50.70789 | 7.72842 | 3766 ft | 156 kts | 297° |
| 2026-05-05 12:01 | 50.71307 | 7.71359 | 3779 ft | 152 kts | 294° |
| 2026-05-05 12:01 | 50.71797 | 7.69856 | 3593 ft | 161 kts | 298° |
| 2026-05-05 12:01 | 50.72479 | 7.68464 | 3485 ft | 162 kts | 308° |
| 2026-05-05 12:01 | 50.73164 | 7.67112 | 3458 ft | 157 kts | 302° |
| 2026-05-05 12:02 | 50.73828 | 7.65725 | 3299 ft | 159 kts | 309° |
| 2026-05-05 12:02 | 50.74492 | 7.64293 | 3140 ft | 162 kts | 303° |
| 2026-05-05 12:02 | 50.75186 | 7.62832 | 2713 ft | 175 kts | 306° |
| 2026-05-05 12:02 | 50.75851 | 7.61393 | 2967 ft | 146 kts | 304° |
| 2026-05-05 12:03 | 50.76410 | 7.60086 | 3043 ft | 148 kts | 298° |
| 2026-05-05 12:03 | 50.76892 | 7.58582 | 2875 ft | 157 kts | 292° |
| 2026-05-05 12:03 | 50.77246 | 7.57021 | 3006 ft | 146 kts | 284° |
| 2026-05-05 12:03 | 50.77493 | 7.55468 | 3043 ft | 148 kts | 282° |
| 2026-05-05 12:04 | 50.77734 | 7.53872 | 3085 ft | 146 kts | 281° |
| 2026-05-05 12:04 | 50.78036 | 7.52285 | 3012 ft | 153 kts | 290° |
| 2026-05-05 12:04 | 50.78425 | 7.50762 | 3142 ft | 147 kts | 293° |
| 2026-05-05 12:04 | 50.78974 | 7.49392 | 3152 ft | 151 kts | 307° |
| 2026-05-05 12:05 | 50.79693 | 7.48174 | 3160 ft | 151 kts | 316° |
| 2026-05-05 12:05 | 50.80511 | 7.47125 | 3180 ft | 152 kts | 320° |
| 2026-05-05 12:05 | 50.81346 | 7.46096 | 3208 ft | 153 kts | 319° |
| 2026-05-05 12:05 | 50.82216 | 7.45137 | 3242 ft | 152 kts | 323° |
| 2026-05-05 12:06 | 50.83089 | 7.44198 | 3293 ft | 151 kts | 322° |
| 2026-05-05 12:06 | 50.83939 | 7.43200 | 3304 ft | 153 kts | 320° |
| 2026-05-05 12:06 | 50.84805 | 7.42207 | 3330 ft | 153 kts | 322° |
| 2026-05-05 12:06 | 50.85640 | 7.41184 | 3324 ft | 152 kts | 314° |
| 2026-05-05 12:07 | 50.86377 | 7.39958 | 3253 ft | 156 kts | 309° |
| 2026-05-05 12:07 | 50.87081 | 7.38665 | 3240 ft | 153 kts | 310° |
| 2026-05-05 12:07 | 50.87851 | 7.37497 | 3226 ft | 154 kts | 314° |
| 2026-05-05 12:07 | 50.88590 | 7.36271 | 3224 ft | 152 kts | 309° |
| 2026-05-05 12:08 | 50.89273 | 7.35009 | 3247 ft | 150 kts | 307° |
| 2026-05-05 12:08 | 50.89950 | 7.33729 | 3177 ft | 153 kts | 302° |
| 2026-05-05 12:08 | 50.90500 | 7.32267 | 3120 ft | 153 kts | 299° |
| 2026-05-05 12:08 | 50.91134 | 7.30959 | 3163 ft | 148 kts | 312° |
| 2026-05-05 12:09 | 50.91930 | 7.29892 | 3126 ft | 153 kts | 320° |
| 2026-05-05 12:09 | 50.92764 | 7.28837 | 3080 ft | 153 kts | 320° |
| 2026-05-05 12:09 | 50.93633 | 7.27881 | 3095 ft | 153 kts | 326° |
| 2026-05-05 12:09 | 50.94605 | 7.27169 | 3063 ft | 157 kts | 341° |
| 2026-05-05 12:10 | 50.95652 | 7.26685 | 3004 ft | 156 kts | 336° |
| 2026-05-05 12:10 | 50.96598 | 7.25888 | 2999 ft | 154 kts | 325° |
| 2026-05-05 12:10 | 50.97509 | 7.25003 | 2999 ft | 153 kts | 328° |
| 2026-05-05 12:10 | 50.98417 | 7.24126 | 2970 ft | 153 kts | 320° |
| 2026-05-05 12:11 | 50.99106 | 7.22840 | 2889 ft | 154 kts | 305° |
| 2026-05-05 12:11 | 50.99751 | 7.21516 | 2931 ft | 149 kts | 306° |
| 2026-05-05 12:11 | 51.00403 | 7.20245 | 2921 ft | 150 kts | 309° |
| 2026-05-05 12:11 | 51.01112 | 7.19020 | 2909 ft | 151 kts | 312° |
| 2026-05-05 12:12 | 51.01883 | 7.17871 | 2894 ft | 153 kts | 317° |
| 2026-05-05 12:12 | 51.02688 | 7.16777 | 2861 ft | 152 kts | 312° |
| 2026-05-05 12:12 | 51.03461 | 7.15548 | 2664 ft | 161 kts | 316° |
| 2026-05-05 12:12 | 51.04315 | 7.14417 | 2513 ft | 163 kts | 320° |
| 2026-05-05 12:13 | 51.05226 | 7.13312 | 2293 ft | 163 kts | 321° |
| 2026-05-05 12:13 | 51.06083 | 7.12063 | 1826 ft | 173 kts | 314° |
| 2026-05-05 12:13 | 51.06876 | 7.10687 | 1702 ft | 161 kts | 313° |
| 2026-05-05 12:13 | 51.07553 | 7.09454 | 1926 ft | 142 kts | 312° |
| 2026-05-05 12:14 | 51.08205 | 7.08270 | 2012 ft | 142 kts | 312° |
| 2026-05-05 12:14 | 51.08856 | 7.07039 | 1940 ft | 148 kts | 305° |
| 2026-05-05 12:14 | 51.09372 | 7.05753 | 2171 ft | 136 kts | 306° |
| 2026-05-05 12:14 | 51.09970 | 7.04447 | 1834 ft | 154 kts | 311° |
| 2026-05-05 12:15 | 51.10667 | 7.03216 | 1887 ft | 142 kts | 316° |
| 2026-05-05 12:15 | 51.11366 | 7.02140 | 1929 ft | 142 kts | 315° |
| 2026-05-05 12:15 | 51.12057 | 7.01001 | 1906 ft | 143 kts | 316° |
| 2026-05-05 12:15 | 51.12740 | 6.99887 | 1953 ft | 140 kts | 315° |
| 2026-05-05 12:16 | 51.13415 | 6.98729 | 1911 ft | 146 kts | 315° |
| 2026-05-05 12:16 | 51.14125 | 6.97551 | 1883 ft | 148 kts | 320° |
| 2026-05-05 12:16 | 51.14898 | 6.96493 | 1921 ft | 146 kts | 322° |
| 2026-05-05 12:16 | 51.15674 | 6.95453 | 1951 ft | 145 kts | 324° |
| 2026-05-05 12:17 | 51.16525 | 6.94619 | 1940 ft | 144 kts | 337° |
| 2026-05-05 12:17 | 51.17351 | 6.93738 | 1989 ft | 142 kts | 322° |
| 2026-05-05 12:17 | 51.18113 | 6.92722 | 1967 ft | 145 kts | 322° |
| 2026-05-05 12:17 | 51.18851 | 6.91578 | 1917 ft | 147 kts | 319° |
| 2026-05-05 12:18 | 51.19588 | 6.90486 | 1945 ft | 146 kts | 321° |
| 2026-05-05 12:18 | 51.20364 | 6.89406 | 1869 ft | 148 kts | 323° |
| 2026-05-05 12:18 | 51.21162 | 6.88526 | 2091 ft | 135 kts | 332° |
| 2026-05-05 12:18 | 51.22037 | 6.87888 | 2041 ft | 143 kts | 345° |
| 2026-05-05 12:19 | 51.23015 | 6.87622 | 2053 ft | 143 kts | 353° |
| 2026-05-05 12:19 | 51.23986 | 6.87504 | 2172 ft | 138 kts | 1° |
| 2026-05-05 12:19 | 51.24971 | 6.87448 | 2140 ft | 146 kts | 357° |
| 2026-05-05 12:19 | 51.25967 | 6.87454 | 2243 ft | 140 kts | 6° |
| 2026-05-05 12:20 | 51.26932 | 6.87779 | 2127 ft | 149 kts | 11° |
| 2026-05-05 12:20 | 51.28047 | 6.88016 | 1473 ft | 167 kts | 8° |
| 2026-05-05 12:20 | 51.29230 | 6.88241 | 1032 ft | 159 kts | 7° |
| 2026-05-05 12:20 | 51.30249 | 6.88317 | 1076 ft | 148 kts | 356° |
| 2026-05-05 12:21 | 51.31160 | 6.87849 | 1330 ft | 130 kts | 329° |
| 2026-05-05 12:21 | 51.31723 | 6.86670 | 1271 ft | 137 kts | 299° |
| 2026-05-05 12:21 | 51.32117 | 6.85373 | 1332 ft | 117 kts | 300° |
| 2026-05-05 12:21 | 51.32309 | 6.84200 | 1492 ft | 106 kts | 263° |
| 2026-05-05 12:22 | 51.31932 | 6.83196 | 1479 ft | 114 kts | 232° |
| 2026-05-05 12:22 | 51.31404 | 6.82279 | 1324 ft | 110 kts | 229° |
| 2026-05-05 12:22 | 51.30898 | 6.81334 | 928 ft | 115 kts | 236° |
| 2026-05-05 12:22 | 51.30422 | 6.80366 | 581 ft | 107 kts | 235° |
| 2026-05-05 12:23 | 51.30003 | 6.79487 | 384 ft | 96 kts | 240° |
| 2026-05-05 12:23 | 51.29607 | 6.78652 | 209 ft | 89 kts | 240° |
| 2026-05-05 12:23 | 51.29267 | 6.77944 | 132 ft | 72 kts | 238° |
| 2026-05-05 12:23 | 51.29032 | 6.77447 | 124 ft | 26 kts | 234° |
| 2026-05-05 12:24 | 51.28931 | 6.77233 | 122 ft | 22 kts | 232° |
| 2026-05-05 12:24 | 51.28847 | 6.77058 | 123 ft | 19 kts | 233° |
| 2026-05-05 12:24 | 51.28761 | 6.76876 | 126 ft | 20 kts | 233° |
| 2026-05-05 12:24 | 51.28677 | 6.76701 | 122 ft | 20 kts | 233° |
| 2026-05-05 12:25 | 51.28596 | 6.76531 | 121 ft | 20 kts | 232° |
| 2026-05-05 12:25 | 51.28509 | 6.76354 | 118 ft | 20 kts | 232° |
| 2026-05-05 12:25 | 51.28442 | 6.76209 | 116 ft | 8 kts | 223° |
| 2026-05-05 12:25 | 51.28403 | 6.76153 | 116 ft | 6 kts | 230° |
| 2026-05-05 12:26 | 51.28356 | 6.76030 | 118 ft | 15 kts | 221° |
| 2026-05-05 12:26 | 51.28282 | 6.76021 | 120 ft | 1 kts | 190° |
| 2026-05-05 12:26 | 51.28249 | 6.75995 | 120 ft | 14 kts | 209° |
| 2026-05-05 12:26 | 51.28157 | 6.75923 | 121 ft | 14 kts | 206° |
| 2026-05-05 12:27 | 51.28109 | 6.75889 | 123 ft | 6 kts | 199° |
| 2026-05-05 12:27 | 51.28067 | 6.75856 | 120 ft | 8 kts | 208° |
| 2026-05-05 12:27 | 51.28042 | 6.75839 | 117 ft | 0 kts | 200° |
| 2026-05-05 12:27 | 51.28024 | 6.75826 | 119 ft | 10 kts | 210° |
| 2026-05-05 12:28 | 51.27961 | 6.75663 | 119 ft | 21 kts | 231° |
| 2026-05-05 12:28 | 51.27881 | 6.75500 | 116 ft | 9 kts | 235° |
| 2026-05-05 12:28 | 51.27838 | 6.75446 | 117 ft | 9 kts | 188° |
| 2026-05-05 12:28 | 51.27775 | 6.75408 | 117 ft | 11 kts | 176° |
| 2026-05-05 12:29 | 51.27708 | 6.75455 | 118 ft | 9 kts | 151° |
| 2026-05-05 12:29 | 51.27663 | 6.75498 | 120 ft | 6 kts | 153° |
| 2026-05-05 12:29 | 51.27658 | 6.75501 | 120 ft | 0 kts | 153° |
| 2026-05-05 12:30 | 51.27636 | 6.75517 | 119 ft | 11 kts | 158° |
| 2026-05-05 12:30 | 51.27554 | 6.75571 | 122 ft | 10 kts | 157° |
| 2026-05-05 12:30 | 51.27496 | 6.75618 | 121 ft | 12 kts | 155° |
| 2026-05-05 12:31 | 51.27465 | 6.75568 | 121 ft | 12 kts | 243° |
| 2026-05-05 12:31 | 51.27442 | 6.75506 | 120 ft | 2 kts | 229° |
| 2026-05-05 12:31 | 51.27393 | 6.75525 | 117 ft | 6 kts | 163° |
| 2026-05-05 12:31 | 51.27373 | 6.75455 | 119 ft | 11 kts | 261° |
| 2026-05-05 12:32 | 51.27407 | 6.75345 | 117 ft | 10 kts | 327° |
| 2026-05-05 12:32 | 51.27462 | 6.75309 | 117 ft | 6 kts | 328° |
| 2026-05-05 12:32 | 51.27468 | 6.75257 | 118 ft | 5 kts | 263° |
| 2026-05-05 12:32 | 51.27468 | 6.75252 | 118 ft | 0 kts | 265° |